createdAt,value
2019-02-10T00:04:03.509Z,9.00
2019-02-10T00:09:07.464Z,5.47
2019-02-10T00:14:11.685Z,6.97
2019-02-10T00:19:15.412Z,5.23
2019-02-10T00:24:19.082Z,5.47
2019-02-10T00:29:23.023Z,4.73
2019-02-10T00:34:26.717Z,7.67
2019-02-10T00:39:30.389Z,5.53
2019-02-10T00:44:34.065Z,6.07
2019-02-10T00:49:37.816Z,8.73
2019-02-10T00:54:41.500Z,7.10
2019-02-10T00:59:45.172Z,6.97
2019-02-10T01:04:48.857Z,6.17
2019-02-10T01:09:52.536Z,10.30
2019-02-10T01:14:56.212Z,7.13
2019-02-10T01:19:59.880Z,6.93
2019-02-10T01:25:03.741Z,7.17
2019-02-10T01:30:13.747Z,9.27
2019-02-10T01:35:17.508Z,5.93
2019-02-10T01:40:21.181Z,7.23
2019-02-10T01:45:24.861Z,8.07
2019-02-10T01:50:28.540Z,6.60
2019-02-10T01:55:33.043Z,8.07
2019-02-10T02:00:36.962Z,6.20
2019-02-10T02:05:40.660Z,7.30
2019-02-10T02:10:44.325Z,7.43
2019-02-10T02:15:48.005Z,6.77
2019-02-10T02:20:51.694Z,8.60
2019-02-10T02:25:55.362Z,5.50
2019-02-10T02:30:59.064Z,10.57
2019-02-10T02:36:02.732Z,5.33
2019-02-10T02:41:25.746Z,6.93
2019-02-10T02:46:29.427Z,7.97
2019-02-10T02:51:33.095Z,7.73
2019-02-10T02:56:36.771Z,6.13
2019-02-10T03:01:40.519Z,10.30
2019-02-10T03:06:47.808Z,7.50
2019-02-10T03:11:51.479Z,7.70
2019-02-10T03:16:55.162Z,7.60
2019-02-10T03:21:58.907Z,6.13
2019-02-10T03:27:02.583Z,7.03
2019-02-10T03:32:06.270Z,6.67
2019-02-10T03:37:09.933Z,7.83
2019-02-10T03:42:13.613Z,9.10
2019-02-10T03:47:17.320Z,7.13
2019-02-10T03:52:21.036Z,6.73
2019-02-10T03:57:24.973Z,6.10
2019-02-10T04:02:29.037Z,5.37
2019-02-10T04:07:36.165Z,6.27
2019-02-10T04:12:38.108Z,8.03
2019-02-10T04:17:42.029Z,7.97
2019-02-10T04:22:46.062Z,9.13
2019-02-10T04:27:49.752Z,7.00
2019-02-10T04:32:53.510Z,8.57
2019-02-10T04:37:57.183Z,7.40
2019-02-10T04:43:00.851Z,10.03
2019-02-10T04:48:04.614Z,8.40
2019-02-10T04:53:08.350Z,5.90
2019-02-10T04:58:12.023Z,9.70
2019-02-10T05:03:15.684Z,8.87
2019-02-10T05:08:19.353Z,6.33
2019-02-10T05:13:23.033Z,8.43
2019-02-10T05:18:26.711Z,9.10
2019-02-10T05:23:30.425Z,8.77
2019-02-10T05:28:34.180Z,6.80
2019-02-10T05:33:38.183Z,9.30
2019-02-10T05:38:41.864Z,9.17
2019-02-10T05:43:45.530Z,6.97
2019-02-10T05:48:49.534Z,8.63
2019-02-10T05:53:53.215Z,9.30
2019-02-10T05:58:56.951Z,9.67
2019-02-10T06:04:00.649Z,8.00
2019-02-10T06:09:05.144Z,10.93
2019-02-10T06:14:08.902Z,9.13
2019-02-10T06:19:12.580Z,9.37
2019-02-10T06:24:16.270Z,8.03
2019-02-10T06:29:19.947Z,9.03
2019-02-10T06:34:23.671Z,6.33
2019-02-10T06:39:27.370Z,8.30
2019-02-10T06:44:31.174Z,8.03
2019-02-10T06:49:34.858Z,10.93
2019-02-10T06:54:45.067Z,10.97
2019-02-10T07:00:04.858Z,9.87
2019-02-10T07:05:10.277Z,8.03
2019-02-10T07:10:13.946Z,7.30
2019-02-10T07:15:53.998Z,11.03
2019-02-10T07:20:57.678Z,8.70
2019-02-10T07:26:03.521Z,9.70
2019-02-10T07:31:07.562Z,6.70
2019-02-10T07:36:35.850Z,7.83
2019-02-10T07:42:19.959Z,5.90
2019-02-10T07:47:52.245Z,6.10
2019-02-10T07:53:13.221Z,6.03
2019-02-10T07:58:35.918Z,11.13
2019-02-10T08:03:56.186Z,7.43
2019-02-10T08:09:33.405Z,8.93
2019-02-10T08:15:08.802Z,7.20
2019-02-10T08:20:42.116Z,5.20
2019-02-10T08:26:11.694Z,5.93
2019-02-10T08:32:07.853Z,9.37
2019-02-10T08:37:48.718Z,7.53
2019-02-10T08:43:55.195Z,11.80
2019-02-10T08:49:36.423Z,6.43
2019-02-10T08:54:40.171Z,9.20
2019-02-10T08:59:43.897Z,12.30
2019-02-10T09:04:47.882Z,12.20
2019-02-10T09:09:51.771Z,9.17
2019-02-10T09:14:55.536Z,9.13
2019-02-10T09:19:59.525Z,8.03
2019-02-10T09:25:03.266Z,8.27
2019-02-10T09:30:07.950Z,9.07
2019-02-10T09:35:11.653Z,11.50
2019-02-10T09:40:15.328Z,9.53
2019-02-10T09:45:19.465Z,10.67
2019-02-10T09:50:23.133Z,10.23
2019-02-10T09:55:26.897Z,11.07
2019-02-10T10:00:30.629Z,8.97
2019-02-10T10:05:34.322Z,6.40
2019-02-10T10:10:38.283Z,11.20
2019-02-10T10:15:42.238Z,8.40
2019-02-10T10:20:45.944Z,7.97
2019-02-10T10:25:49.725Z,10.27
2019-02-10T10:30:53.476Z,7.43
2019-02-10T10:35:57.173Z,8.30
2019-02-10T10:41:00.901Z,10.67
2019-02-10T10:46:04.575Z,7.93
2019-02-10T10:51:08.249Z,11.73
2019-02-10T10:56:11.995Z,9.27
2019-02-10T11:01:15.759Z,10.40
2019-02-10T11:06:19.433Z,9.40
2019-02-10T11:11:23.106Z,9.23
2019-02-10T11:16:27.086Z,10.73
2019-02-10T11:21:30.767Z,10.53
2019-02-10T11:26:34.439Z,7.17
2019-02-10T11:31:38.126Z,8.70
2019-02-10T11:36:41.798Z,9.70
2019-02-10T11:41:45.469Z,9.60
2019-02-10T11:46:49.147Z,8.17
2019-02-10T11:51:52.874Z,10.03
2019-02-10T11:56:56.537Z,9.53
2019-02-10T12:02:00.222Z,7.60
2019-02-10T12:07:04.004Z,9.90
2019-02-10T12:12:07.673Z,7.23
2019-02-10T12:17:11.488Z,5.20
2019-02-10T12:22:15.455Z,7.33
2019-02-10T12:27:19.144Z,7.73
2019-02-10T12:32:22.894Z,8.90
2019-02-10T12:37:32.245Z,9.00
2019-02-10T12:42:32.044Z,7.03
2019-02-10T12:47:35.859Z,6.97
2019-02-10T12:52:39.707Z,5.13
2019-02-10T12:57:43.369Z,5.40
2019-02-10T13:02:47.100Z,7.13
2019-02-10T13:07:52.621Z,7.53
2019-02-10T13:12:56.306Z,5.87
2019-02-10T13:18:00.452Z,5.63
2019-02-10T13:23:04.213Z,3.97
2019-02-10T13:28:08.162Z,6.43
2019-02-10T13:33:11.987Z,5.57
2019-02-10T13:38:15.749Z,3.53
2019-02-10T13:43:19.435Z,5.43
2019-02-10T13:48:23.124Z,4.37
2019-02-10T13:53:26.884Z,3.93
2019-02-10T13:58:30.626Z,2.87
2019-02-10T14:03:34.294Z,3.00
2019-02-10T14:08:37.970Z,3.20
2019-02-10T14:13:41.710Z,3.57
2019-02-10T14:18:45.377Z,3.87
2019-02-10T14:23:49.378Z,3.33
2019-02-10T14:28:53.054Z,4.50
2019-02-10T14:33:56.815Z,5.87
2019-02-10T14:39:00.542Z,3.10
2019-02-10T14:44:04.208Z,2.37
2019-02-10T14:49:08.191Z,3.93
2019-02-10T14:54:11.861Z,2.80
2019-02-10T14:59:15.597Z,3.00
2019-02-10T15:04:19.296Z,3.60
2019-02-10T15:09:22.984Z,3.40
2019-02-10T15:14:26.907Z,2.60
2019-02-10T15:19:30.825Z,2.93
2019-02-10T15:24:34.530Z,4.50
2019-02-10T15:29:38.202Z,4.10
2019-02-10T15:34:41.909Z,3.00
2019-02-10T15:39:45.918Z,3.87
2019-02-10T15:44:49.603Z,10.67
2019-02-10T15:49:53.358Z,4.30
2019-02-10T15:54:57.042Z,8.27
2019-02-10T16:00:00.742Z,4.47
2019-02-10T16:05:04.574Z,6.67
2019-02-10T16:10:09.578Z,9.87
2019-02-10T16:15:13.414Z,5.60
2019-02-10T16:20:17.099Z,18.67
2019-02-10T16:25:20.813Z,5.33
2019-02-10T16:30:24.516Z,8.27
2019-02-10T16:35:28.256Z,5.53
2019-02-10T16:40:32.017Z,6.93
2019-02-10T16:45:35.686Z,4.00
2019-02-10T16:50:39.375Z,4.53
2019-02-10T16:55:43.037Z,6.23
2019-02-10T17:00:46.714Z,7.37
2019-02-10T17:05:50.483Z,6.37
2019-02-10T17:10:54.166Z,3.40
2019-02-10T17:16:04.988Z,12.50
2019-02-10T17:21:03.555Z,4.37
2019-02-10T17:26:07.238Z,3.80
2019-02-10T17:31:10.998Z,4.10
2019-02-10T17:36:14.689Z,4.00
2019-02-10T17:41:25.686Z,3.57
2019-02-10T17:46:29.386Z,3.87
2019-02-10T17:51:33.082Z,3.90
2019-02-10T17:56:37.219Z,9.33
2019-02-10T18:01:41.030Z,4.10
2019-02-10T18:06:45.330Z,5.13
2019-02-10T18:11:49.059Z,4.17
2019-02-10T18:17:00.369Z,4.37
2019-02-10T18:22:11.404Z,4.43
2019-02-10T18:27:40.571Z,4.17
2019-02-10T18:33:06.398Z,3.60
2019-02-10T18:38:41.675Z,4.03
2019-02-10T18:44:04.010Z,3.53
2019-02-10T18:49:36.274Z,2.40
2019-02-10T18:54:48.298Z,3.10
2019-02-10T19:00:01.237Z,2.87
2019-02-10T19:05:14.363Z,3.60
2019-02-10T19:10:32.059Z,2.50
2019-02-10T19:15:57.262Z,2.90
2019-02-10T19:21:21.418Z,3.00
2019-02-10T19:26:53.603Z,3.50
2019-02-10T19:32:22.981Z,2.87
2019-02-10T19:37:44.565Z,3.10
2019-02-10T19:43:02.962Z,2.20
2019-02-10T19:48:17.118Z,4.60
2019-02-10T19:53:33.514Z,4.63
2019-02-10T19:58:59.537Z,3.40
2019-02-10T20:04:25.867Z,4.17
2019-02-10T20:10:00.903Z,2.37
2019-02-10T20:15:18.210Z,2.93
2019-02-10T20:20:38.013Z,2.43
2019-02-10T20:25:54.392Z,2.20
2019-02-10T20:31:23.636Z,2.10
2019-02-10T20:36:33.299Z,2.10
2019-02-10T20:41:59.186Z,2.20
2019-02-10T20:47:21.884Z,3.30
2019-02-10T20:52:54.487Z,2.20
2019-02-10T20:58:14.978Z,2.90
2019-02-10T21:03:27.582Z,2.30
2019-02-10T21:08:53.593Z,2.53
2019-02-10T21:14:07.918Z,2.00
2019-02-10T21:19:36.865Z,2.80
2019-02-10T21:24:51.654Z,2.90
2019-02-10T21:30:20.622Z,1.40
2019-02-10T21:35:30.934Z,1.23
2019-02-10T21:40:45.444Z,1.27
2019-02-10T21:46:02.850Z,1.50
2019-02-10T21:51:06.991Z,2.63
2019-02-10T21:56:11.116Z,3.27
2019-02-10T22:01:15.993Z,1.50
2019-02-10T22:06:20.287Z,1.50
2019-02-10T22:11:24.025Z,2.73
2019-02-10T22:16:27.725Z,1.03
2019-02-10T22:21:31.398Z,1.10
2019-02-10T22:26:35.078Z,1.20
2019-02-10T22:31:39.078Z,1.20
2019-02-10T22:36:43.410Z,0.90
2019-02-10T22:41:47.101Z,2.40
2019-02-10T22:46:50.773Z,1.30
2019-02-10T22:51:54.448Z,1.03
2019-02-10T22:56:58.736Z,1.53
2019-02-10T23:02:02.555Z,1.20
2019-02-10T23:07:06.227Z,1.63
2019-02-10T23:12:09.937Z,1.13
2019-02-10T23:17:13.932Z,1.30
2019-02-10T23:22:17.612Z,1.73
2019-02-10T23:27:21.287Z,4.47
2019-02-10T23:32:24.971Z,1.60
2019-02-10T23:37:28.676Z,1.70
2019-02-10T23:42:32.411Z,1.90
2019-02-10T23:47:36.106Z,3.60
2019-02-10T23:52:39.787Z,2.43
2019-02-10T23:57:43.488Z,2.20
